Terminal Aerodrome Forecast
Issued by NWS

Home | Current Version | Previous Version | Text Only | Print | Product List | Glossary On
Versions: 1 2 3 4 5 6 7 8 9 10 11 12 13 14 15 16 17 18 19 20
000
FTUS41 KALY 010400 AAB
TAFPSF
TAF AMD
KPSF 010411Z 0104/0124 VRB03KT 4SM BR FEW060
     FM010600 00000KT 2SM BR BKN005
     FM011200 23005KT P6SM SCT035
     FM011900 21008KT P6SM VCSH BKN050=

USA.gov is the U.S. government's official web portal to all federal, state and local government web resources and services.